Time;durP1;ratioP1;P1;durP2;ratioP2;P2;SDS_P1;SDS_P2;PMS_P1;PMS_P2;Temp;Humidity;BMP_temperature;BMP_pressure;BME280_temperature;BME280_humidity;BME280_pressure;Samples;Min_cycle;Max_cycle;Signal;HPM_P1;HPM_P2
2021/08/26 00:06:21;;;;;;;15.73;11.23;;;;;;;;;;5053214;28;20967;-83
2021/08/26 00:08:50;;;;;;;14.07;11.27;;;;;;;;;;5052758;28;20407;-85
2021/08/26 00:11:21;;;;;;;14.50;11.00;;;;;;;;;;5052711;28;20394;-82
2021/08/26 00:13:47;;;;;;;13.93;10.57;;;;;;;;;;5056476;28;20412;-82
2021/08/26 00:16:17;;;;;;;12.83;9.97;;;;;;;;;;5038863;28;20970;-83
2021/08/26 00:18:43;;;;;;;12.87;9.60;;;;;;;;;;5039204;28;20415;-85
2021/08/26 00:21:09;;;;;;;10.10;8.50;;;;;;;;;;5025594;28;20492;-82
2021/08/26 00:23:35;;;;;;;8.13;6.10;;;;;;;;;;5057383;28;20414;-81
2021/08/26 00:26:01;;;;;;;7.93;5.77;;;;;;;;;;5038850;28;20454;-81
2021/08/26 00:28:27;;;;;;;10.80;7.77;;;;;;;;;;5056321;28;20802;-82
2021/08/26 00:30:53;;;;;;;8.27;5.90;;;;;;;;;;5056423;28;20438;-82
2021/08/26 00:33:19;;;;;;;9.00;5.13;;;;;;;;;;5056094;28;20442;-80
2021/08/26 00:35:45;;;;;;;8.40;6.63;;;;;;;;;;5056095;28;20773;-81
2021/08/26 00:38:11;;;;;;;9.20;7.33;;;;;;;;;;5038583;28;20399;-81
2021/08/26 00:40:37;;;;;;;9.13;7.03;;;;;;;;;;5038340;28;20394;-81
2021/08/26 00:43:03;;;;;;;9.13;6.00;;;;;;;;;;5055869;28;20877;-84
2021/08/26 00:45:29;;;;;;;8.63;6.47;;;;;;;;;;5056122;28;20449;-80
2021/08/26 00:47:55;;;;;;;9.40;6.70;;;;;;;;;;5055931;28;20390;-84
2021/08/26 00:50:23;;;;;;;8.30;6.07;;;;;;;;;;5055919;28;20463;-82
2021/08/26 00:52:49;;;;;;;8.20;5.93;;;;;;;;;;5055905;28;20848;-81
2021/08/26 00:55:18;;;;;;;7.00;6.20;;;;;;;;;;5055821;28;20485;-85
2021/08/26 00:57:44;;;;;;;6.23;5.60;;;;;;;;;;5038007;28;20534;-80
2021/08/26 01:00:11;;;;;;;6.40;5.70;;;;;;;;;;5055842;28;20896;-80
2021/08/26 01:02:40;;;;;;;7.67;5.93;;;;;;;;;;5055833;28;20428;-80
2021/08/26 01:05:16;;;;;;;8.40;6.30;;;;;;;;;;5055513;28;20440;-81
2021/08/26 01:07:45;;;;;;;8.20;6.27;;;;;;;;;;5055793;28;20408;-83
2021/08/26 01:10:14;;;;;;;9.27;6.20;;;;;;;;;;5021357;28;20558;-82
2021/08/26 01:12:40;;;;;;;5.30;4.63;;;;;;;;;;5055475;28;20407;-82
2021/08/26 01:15:09;;;;;;;7.30;5.10;;;;;;;;;;5055282;28;20428;-81
2021/08/26 01:17:35;;;;;;;7.10;6.07;;;;;;;;;;5037547;28;20490;-82
2021/08/26 01:20:02;;;;;;;8.40;5.57;;;;;;;;;;5055437;28;20391;-83
2021/08/26 01:22:28;;;;;;;7.10;5.87;;;;;;;;;;5055659;28;20422;-84
2021/08/26 01:24:59;;;;;;;6.43;5.57;;;;;;;;;;5055106;28;20454;-83
2021/08/26 01:27:25;;;;;;;7.70;6.20;;;;;;;;;;5055582;28;20404;-80
2021/08/26 01:29:52;;;;;;;7.07;5.60;;;;;;;;;;5055277;28;20463;-81
2021/08/26 01:32:21;;;;;;;10.07;5.97;;;;;;;;;;5054926;28;20426;-81
2021/08/26 01:34:51;;;;;;;7.20;6.20;;;;;;;;;;5055007;28;20379;-80
2021/08/26 01:37:18;;;;;;;10.97;7.70;;;;;;;;;;5037177;28;20970;-83
2021/08/26 01:39:45;;;;;;;8.70;6.93;;;;;;;;;;5055059;28;20818;-82
2021/08/26 01:42:11;;;;;;;11.70;8.10;;;;;;;;;;5036981;28;20398;-81
2021/08/26 01:44:37;;;;;;;8.60;7.13;;;;;;;;;;5054820;28;20398;-81
2021/08/26 01:47:08;;;;;;;10.03;7.87;;;;;;;;;;5055259;28;20436;-85
2021/08/26 01:49:34;;;;;;;12.17;8.03;;;;;;;;;;5055411;28;20517;-83
2021/08/26 01:52:00;;;;;;;10.37;8.47;;;;;;;;;;5037696;28;20924;-81
2021/08/26 01:54:26;;;;;;;12.17;9.87;;;;;;;;;;5036864;28;20431;-81
2021/08/26 01:56:52;;;;;;;12.50;9.20;;;;;;;;;;5054744;28;20443;-84
2021/08/26 01:59:18;;;;;;;14.60;9.77;;;;;;;;;;5054939;28;20785;-81
2021/08/26 02:01:44;;;;;;;13.20;10.33;;;;;;;;;;5054763;28;20474;-80
2021/08/26 02:04:10;;;;;;;13.77;10.17;;;;;;;;;;5053991;28;20870;-80
2021/08/26 02:06:36;;;;;;;14.30;9.63;;;;;;;;;;5054317;28;20440;-84
2021/08/26 02:09:02;;;;;;;13.30;9.60;;;;;;;;;;5054349;28;20513;-80
2021/08/26 02:11:28;;;;;;;15.43;11.77;;;;;;;;;;5036853;28;20837;-83
2021/08/26 02:13:54;;;;;;;17.47;11.30;;;;;;;;;;5054166;28;20389;-80
2021/08/26 02:16:20;;;;;;;12.13;9.77;;;;;;;;;;5054338;28;20436;-80
2021/08/26 02:18:46;;;;;;;15.13;10.60;;;;;;;;;;5019894;28;20408;-81
2021/08/26 02:21:12;;;;;;;13.53;10.40;;;;;;;;;;5054394;28;20415;-83
2021/08/26 02:23:38;;;;;;;15.90;10.50;;;;;;;;;;5036150;28;20469;-80
2021/08/26 02:26:04;;;;;;;14.07;10.50;;;;;;;;;;5054317;28;20775;-80
2021/08/26 02:28:30;;;;;;;14.40;11.20;;;;;;;;;;5055326;28;20401;-82
2021/08/26 02:30:56;;;;;;;16.17;11.10;;;;;;;;;;5037719;28;21014;-82
2021/08/26 02:33:22;;;;;;;14.27;9.77;;;;;;;;;;5056242;28;20422;-82
2021/08/26 02:35:48;;;;;;;14.67;10.97;;;;;;;;;;5060591;28;20406;-82
2021/08/26 02:38:14;;;;;;;12.37;10.40;;;;;;;;;;5055137;28;20415;-83
2021/08/26 02:40:40;;;;;;;15.30;11.53;;;;;;;;;;5054080;28;20431;-84
2021/08/26 02:43:06;;;;;;;13.50;10.20;;;;;;;;;;5053676;28;20412;-83
2021/08/26 02:45:32;;;;;;;13.40;10.90;;;;;;;;;;5053882;28;20570;-84
2021/08/26 02:47:58;;;;;;;14.23;11.10;;;;;;;;;;5053944;28;20432;-81
2021/08/26 02:50:24;;;;;;;10.83;9.70;;;;;;;;;;5053807;28;20940;-83
2021/08/26 02:52:50;;;;;;;13.13;10.63;;;;;;;;;;5053363;28;20788;-81
2021/08/26 02:55:16;;;;;;;15.00;9.97;;;;;;;;;;5053673;28;20424;-81
2021/08/26 02:57:42;;;;;;;13.07;10.00;;;;;;;;;;5053587;28;20386;-81
2021/08/26 03:00:09;;;;;;;12.63;9.43;;;;;;;;;;5035810;28;20422;-82
2021/08/26 03:02:35;;;;;;;10.10;9.00;;;;;;;;;;5054116;28;20412;-81
2021/08/26 03:05:01;;;;;;;10.20;7.47;;;;;;;;;;5054688;28;20799;-79
2021/08/26 03:07:27;;;;;;;9.73;6.70;;;;;;;;;;5059917;28;20447;-80
2021/08/26 03:09:53;;;;;;;7.67;4.90;;;;;;;;;;5053480;28;20463;-79
2021/08/26 03:12:19;;;;;;;9.87;4.57;;;;;;;;;;5053401;28;20786;-78
2021/08/26 03:14:45;;;;;;;10.70;4.50;;;;;;;;;;5052889;28;20415;-79
2021/08/26 03:17:11;;;;;;;7.83;4.40;;;;;;;;;;5053156;28;20416;-79
2021/08/26 03:19:37;;;;;;;9.30;3.80;;;;;;;;;;5053272;28;20897;-79
2021/08/26 03:22:03;;;;;;;7.27;4.20;;;;;;;;;;5053644;28;20412;-79
2021/08/26 03:24:29;;;;;;;8.07;4.00;;;;;;;;;;5052852;28;20408;-78
2021/08/26 03:26:55;;;;;;;6.63;3.57;;;;;;;;;;5053276;28;20951;-79
2021/08/26 03:29:21;;;;;;;9.20;3.60;;;;;;;;;;5053346;28;20467;-79
2021/08/26 03:31:47;;;;;;;7.77;3.30;;;;;;;;;;5053517;28;20408;-79
2021/08/26 03:34:13;;;;;;;7.87;3.67;;;;;;;;;;5053239;28;20415;-78
2021/08/26 03:36:38;;;;;;;9.23;3.97;;;;;;;;;;5053392;28;20427;-77
2021/08/26 03:39:04;;;;;;;20.90;4.70;;;;;;;;;;5052978;28;20420;-77
2021/08/26 03:41:30;;;;;;;13.20;5.10;;;;;;;;;;5053218;28;20444;-78
2021/08/26 03:43:56;;;;;;;12.63;5.90;;;;;;;;;;5034928;28;20428;-80
2021/08/26 03:46:22;;;;;;;14.50;6.70;;;;;;;;;;5053120;28;20553;-79
2021/08/26 03:48:48;;;;;;;12.37;6.73;;;;;;;;;;5057053;28;20383;-80
2021/08/26 03:51:14;;;;;;;20.03;8.73;;;;;;;;;;5057202;28;20424;-79
2021/08/26 03:53:40;;;;;;;17.23;8.00;;;;;;;;;;5056861;28;20915;-80
2021/08/26 03:56:06;;;;;;;16.03;8.30;;;;;;;;;;5057128;28;20501;-78
2021/08/26 03:58:33;;;;;;;19.93;8.57;;;;;;;;;;5057626;28;20416;-77
2021/08/26 04:01:02;;;;;;;15.17;8.33;;;;;;;;;;5057006;28;20415;-80
2021/08/26 04:03:28;;;;;;;15.00;7.27;;;;;;;;;;5038553;28;20458;-80
2021/08/26 04:05:54;;;;;;;8.80;6.37;;;;;;;;;;5024176;28;20782;-79
2021/08/26 04:08:20;;;;;;;13.00;6.93;;;;;;;;;;5022625;28;20465;-79
2021/08/26 04:10:46;;;;;;;13.50;6.40;;;;;;;;;;5056734;28;20498;-78
2021/08/26 04:13:12;;;;;;;9.53;5.97;;;;;;;;;;5038476;28;20419;-79
2021/08/26 04:15:38;;;;;;;13.30;6.13;;;;;;;;;;5056546;28;20479;-79
2021/08/26 04:18:04;;;;;;;14.27;7.43;;;;;;;;;;5056829;28;20411;-79
2021/08/26 04:20:30;;;;;;;12.10;6.67;;;;;;;;;;5056448;28;20926;-80
2021/08/26 04:22:56;;;;;;;11.47;7.40;;;;;;;;;;5056378;28;20415;-79
2021/08/26 04:25:22;;;;;;;15.10;6.33;;;;;;;;;;5056427;28;20932;-80
2021/08/26 04:27:48;;;;;;;25.03;7.10;;;;;;;;;;5038550;28;20416;-79
2021/08/26 04:30:14;;;;;;;14.73;6.80;;;;;;;;;;5056553;28;20733;-80
2021/08/26 04:32:40;;;;;;;16.30;7.03;;;;;;;;;;5056256;28;20412;-79
2021/08/26 04:35:06;;;;;;;11.30;6.53;;;;;;;;;;5056098;28;20793;-80
2021/08/26 04:37:32;;;;;;;12.90;6.80;;;;;;;;;;5038339;28;20427;-80
2021/08/26 04:39:58;;;;;;;8.53;6.70;;;;;;;;;;5056280;28;20434;-79
2021/08/26 04:42:24;;;;;;;15.10;6.83;;;;;;;;;;5056464;28;20408;-79
2021/08/26 04:44:50;;;;;;;15.17;7.20;;;;;;;;;;5055772;28;20506;-79
2021/08/26 04:47:16;;;;;;;7.97;6.60;;;;;;;;;;5056420;28;20473;-79
2021/08/26 04:49:42;;;;;;;9.83;6.80;;;;;;;;;;5055952;28;20446;-79
2021/08/26 04:52:08;;;;;;;12.67;6.47;;;;;;;;;;5038807;28;20387;-80
2021/08/26 04:54:34;;;;;;;12.40;6.07;;;;;;;;;;5055516;28;20912;-80
2021/08/26 04:57:00;;;;;;;21.20;9.10;;;;;;;;;;5055715;28;20390;-80
2021/08/26 04:59:26;;;;;;;9.90;6.23;;;;;;;;;;5055288;28;20459;-80
2021/08/26 05:01:52;;;;;;;16.00;6.67;;;;;;;;;;5070064;28;20397;-79
2021/08/26 05:04:23;;;;;;;14.70;6.53;;;;;;;;;;5075280;28;20907;-78
2021/08/26 05:06:49;;;;;;;11.70;7.00;;;;;;;;;;5058678;28;20780;-80
2021/08/26 05:09:15;;;;;;;9.60;6.30;;;;;;;;;;5075708;28;20415;-80
2021/08/26 05:11:41;;;;;;;9.53;6.20;;;;;;;;;;5075663;28;20492;-80
2021/08/26 05:14:07;;;;;;;13.30;6.60;;;;;;;;;;5068932;28;20420;-79
2021/08/26 05:16:33;;;;;;;17.60;7.57;;;;;;;;;;5075813;28;20561;-80
2021/08/26 05:18:59;;;;;;;12.53;6.90;;;;;;;;;;5075370;28;20489;-80
2021/08/26 05:21:25;;;;;;;18.50;7.63;;;;;;;;;;5081039;28;20816;-79
2021/08/26 05:23:51;;;;;;;10.40;6.50;;;;;;;;;;5075002;28;20468;-80
2021/08/26 05:26:17;;;;;;;14.90;7.67;;;;;;;;;;5057141;28;20932;-79
2021/08/26 05:28:43;;;;;;;13.70;7.30;;;;;;;;;;5037408;28;20977;-80
2021/08/26 05:31:10;;;;;;;19.90;7.47;;;;;;;;;;5020960;28;20420;-79
2021/08/26 05:33:36;;;;;;;14.20;7.43;;;;;;;;;;5054745;28;20387;-81
2021/08/26 05:36:02;;;;;;;17.60;8.30;;;;;;;;;;5055069;28;20435;-79
2021/08/26 05:38:28;;;;;;;21.63;9.27;;;;;;;;;;5055112;28;20398;-79
2021/08/26 05:40:54;;;;;;;23.30;10.00;;;;;;;;;;5055013;28;20458;-81
2021/08/26 05:43:20;;;;;;;13.53;7.77;;;;;;;;;;5054685;28;20399;-79
2021/08/26 05:45:46;;;;;;;17.77;9.93;;;;;;;;;;5055056;28;20971;-79
2021/08/26 05:48:12;;;;;;;21.40;8.97;;;;;;;;;;5054895;28;20487;-80
2021/08/26 05:50:38;;;;;;;15.60;9.67;;;;;;;;;;5054845;28;20432;-78
2021/08/26 05:53:04;;;;;;;18.60;9.47;;;;;;;;;;5054677;28;20562;-80
2021/08/26 05:55:30;;;;;;;10.60;8.00;;;;;;;;;;5054530;28;20453;-80
2021/08/26 05:57:56;;;;;;;19.63;7.30;;;;;;;;;;5054834;28;20472;-79
2021/08/26 06:00:22;;;;;;;14.60;7.40;;;;;;;;;;5054531;28;20928;-80
2021/08/26 06:02:48;;;;;;;10.17;6.50;;;;;;;;;;5054452;28;20411;-79
2021/08/26 06:05:14;;;;;;;16.10;7.33;;;;;;;;;;5054596;28;20455;-80
2021/08/26 06:07:40;;;;;;;14.50;6.77;;;;;;;;;;5054674;28;20419;-78
2021/08/26 06:10:07;;;;;;;13.13;6.60;;;;;;;;;;5053590;28;20553;-80
2021/08/26 06:12:33;;;;;;;13.30;6.83;;;;;;;;;;5054364;28;20419;-80
2021/08/26 06:14:59;;;;;;;18.43;7.30;;;;;;;;;;5054084;28;20432;-80
2021/08/26 06:17:25;;;;;;;24.60;7.80;;;;;;;;;;5054379;28;20787;-80
2021/08/26 06:19:51;;;;;;;17.70;7.97;;;;;;;;;;5054339;28;20562;-81
2021/08/26 06:22:17;;;;;;;12.20;5.93;;;;;;;;;;5054072;28;20456;-80
2021/08/26 06:24:43;;;;;;;15.17;7.37;;;;;;;;;;5035836;28;20746;-79
2021/08/26 06:27:09;;;;;;;16.23;5.93;;;;;;;;;;5036725;28;20677;-80
2021/08/26 06:29:35;;;;;;;14.67;6.30;;;;;;;;;;5054137;28;20420;-80
2021/08/26 06:32:01;;;;;;;20.00;6.20;;;;;;;;;;5054096;28;20416;-79
2021/08/26 06:34:27;;;;;;;9.63;5.70;;;;;;;;;;5034813;28;20424;-80
2021/08/26 06:36:53;;;;;;;15.17;5.27;;;;;;;;;;5053608;28;20446;-79
2021/08/26 06:39:19;;;;;;;16.97;5.00;;;;;;;;;;5036013;28;20459;-81
2021/08/26 06:41:45;;;;;;;14.37;5.90;;;;;;;;;;5054062;28;20916;-81
2021/08/26 06:44:11;;;;;;;14.37;5.60;;;;;;;;;;5035660;28;20420;-82
2021/08/26 06:46:37;;;;;;;11.97;5.80;;;;;;;;;;5053536;28;20442;-81
2021/08/26 06:49:03;;;;;;;17.17;6.17;;;;;;;;;;5036056;28;20451;-81
2021/08/26 06:51:29;;;;;;;13.47;5.23;;;;;;;;;;5053700;28;20458;-81
2021/08/26 06:53:55;;;;;;;14.60;5.00;;;;;;;;;;5053570;28;20420;-81
2021/08/26 06:56:21;;;;;;;13.70;5.93;;;;;;;;;;5052981;28;20411;-80
2021/08/26 06:58:47;;;;;;;20.30;5.63;;;;;;;;;;5053034;28;20432;-81
2021/08/26 07:01:13;;;;;;;19.27;6.20;;;;;;;;;;5035086;28;20541;-81
2021/08/26 07:03:39;;;;;;;9.90;5.87;;;;;;;;;;5053205;28;20416;-80
2021/08/26 07:06:05;;;;;;;13.53;6.60;;;;;;;;;;5053329;28;20474;-82
2021/08/26 07:08:31;;;;;;;16.97;5.70;;;;;;;;;;5053262;28;20499;-82
2021/08/26 07:10:57;;;;;;;19.63;6.03;;;;;;;;;;5053295;28;20496;-80
2021/08/26 07:13:23;;;;;;;10.17;5.30;;;;;;;;;;5035215;28;20485;-82
2021/08/26 07:15:49;;;;;;;14.97;5.07;;;;;;;;;;5053404;28;20432;-79
2021/08/26 07:18:18;;;;;;;13.40;5.87;;;;;;;;;;5053583;28;20383;-82
2021/08/26 07:20:44;;;;;;;12.90;5.73;;;;;;;;;;5040783;28;20835;-80
2021/08/26 07:23:10;;;;;;;14.50;5.03;;;;;;;;;;5018590;28;20470;-80
2021/08/26 07:25:36;;;;;;;14.40;5.60;;;;;;;;;;5053131;28;20443;-82
2021/08/26 07:28:03;;;;;;;16.77;5.10;;;;;;;;;;5053229;28;20439;-82
2021/08/26 07:30:30;;;;;;;12.67;5.70;;;;;;;;;;5053289;28;20497;-83
2021/08/26 07:32:56;;;;;;;14.00;5.20;;;;;;;;;;5034901;28;20458;-80
2021/08/26 07:35:22;;;;;;;12.30;4.67;;;;;;;;;;5053424;28;20436;-82
2021/08/26 07:37:48;;;;;;;16.40;4.10;;;;;;;;;;5053307;28;20904;-82
2021/08/26 07:40:14;;;;;;;13.33;5.20;;;;;;;;;;5053450;28;20505;-80
2021/08/26 07:42:41;;;;;;;10.67;5.00;;;;;;;;;;5053307;28;20932;-83
2021/08/26 07:45:09;;;;;;;12.10;4.87;;;;;;;;;;5052515;28;20448;-82
2021/08/26 07:47:35;;;;;;;16.07;4.97;;;;;;;;;;5052930;28;20835;-83
2021/08/26 07:50:01;;;;;;;14.13;5.20;;;;;;;;;;5052832;28;20428;-81
2021/08/26 07:52:27;;;;;;;13.37;4.60;;;;;;;;;;5053050;28;20899;-81
2021/08/26 07:54:53;;;;;;;9.63;4.50;;;;;;;;;;5052410;28;20410;-80
2021/08/26 07:57:19;;;;;;;7.77;4.03;;;;;;;;;;5052836;28;20419;-81
2021/08/26 07:59:45;;;;;;;10.80;3.20;;;;;;;;;;5052868;28;20467;-80
2021/08/26 08:02:12;;;;;;;6.97;3.73;;;;;;;;;;5052792;28;20412;-78
2021/08/26 08:04:38;;;;;;;11.60;3.87;;;;;;;;;;5034870;28;20419;-79
2021/08/26 08:07:04;;;;;;;6.83;2.80;;;;;;;;;;5053187;28;20742;-80
2021/08/26 08:09:30;;;;;;;10.50;4.07;;;;;;;;;;5057973;28;20491;-80
2021/08/26 08:11:56;;;;;;;5.13;2.40;;;;;;;;;;5052804;28;20418;-79
2021/08/26 08:14:23;;;;;;;11.27;3.60;;;;;;;;;;5052389;28;20412;-80
2021/08/26 08:16:49;;;;;;;10.03;3.13;;;;;;;;;;5034835;28;21062;-80
2021/08/26 08:19:15;;;;;;;12.07;2.93;;;;;;;;;;5034693;28;20501;-80
2021/08/26 08:21:41;;;;;;;16.20;3.70;;;;;;;;;;5052531;28;20391;-80
2021/08/26 08:24:07;;;;;;;12.20;2.80;;;;;;;;;;5052416;28;20455;-80
2021/08/26 08:27:08;;;;;;;8.30;3.03;;;;;;;;;;5034520;28;20445;-81
2021/08/26 08:29:35;;;;;;;7.90;3.13;;;;;;;;;;4986410;28;20397;-80
2021/08/26 08:32:29;;;;;;;9.20;2.90;;;;;;;;;;5005203;28;20415;-79
2021/08/26 08:38:02;;;;;;;6.27;2.53;;;;;;;;;;4994354;28;20406;-82
2021/08/26 08:40:28;;;;;;;5.83;2.90;;;;;;;;;;4979735;28;20437;-80
2021/08/26 08:42:54;;;;;;;11.50;3.33;;;;;;;;;;4996743;28;20422;-79
2021/08/26 08:45:20;;;;;;;7.10;2.23;;;;;;;;;;5006212;28;20548;-83
2021/08/26 08:47:49;;;;;;;5.60;2.97;;;;;;;;;;5014422;28;20424;-82
2021/08/26 08:50:16;;;;;;;4.57;1.97;;;;;;;;;;5014203;28;20953;-80
2021/08/26 08:52:42;;;;;;;5.60;2.13;;;;;;;;;;5016299;28;20421;-80
2021/08/26 08:55:10;;;;;;;10.47;3.27;;;;;;;;;;5075617;28;20497;-78
2021/08/26 08:57:36;;;;;;;10.23;3.13;;;;;;;;;;5057795;28;20441;-78
2021/08/26 09:00:06;;;;;;;12.43;3.30;;;;;;;;;;5075812;28;20453;-79
2021/08/26 09:02:31;;;;;;;11.00;4.47;;;;;;;;;;5076774;28;20755;-79
2021/08/26 09:04:58;;;;;;;6.23;3.00;;;;;;;;;;5075564;28;20529;-79
2021/08/26 09:07:31;;;;;;;9.63;3.60;;;;;;;;;;5075533;28;20444;-81
2021/08/26 09:09:57;;;;;;;8.73;2.87;;;;;;;;;;5075418;28;20435;-80
2021/08/26 09:12:45;;;;;;;7.90;3.10;;;;;;;;;;5075538;28;20528;-79
2021/08/26 09:15:12;;;;;;;10.13;3.00;;;;;;;;;;5057196;28;20530;-80
2021/08/26 09:17:39;;;;;;;7.30;2.87;;;;;;;;;;5075226;28;20389;-78
2021/08/26 09:20:06;;;;;;;10.27;3.20;;;;;;;;;;5075192;28;20933;-79
2021/08/26 09:22:32;;;;;;;7.50;2.60;;;;;;;;;;5057529;28;20855;-79
2021/08/26 09:24:58;;;;;;;4.80;2.40;;;;;;;;;;5074953;28;20401;-78
2021/08/26 09:27:35;;;;;;;10.10;3.40;;;;;;;;;;5075104;28;20382;-80
2021/08/26 09:30:02;;;;;;;5.60;2.27;;;;;;;;;;5075161;28;20392;-80
2021/08/26 09:32:35;;;;;;;6.13;2.03;;;;;;;;;;5075149;28;20424;-78
2021/08/26 09:35:30;;;;;;;4.77;2.30;;;;;;;;;;5074943;28;20438;-79
2021/08/26 09:37:58;;;;;;;6.07;2.40;;;;;;;;;;5057877;28;20450;-80
2021/08/26 09:40:25;;;;;;;8.23;2.30;;;;;;;;;;5040412;28;20831;-80
2021/08/26 09:43:07;;;;;;;7.23;2.20;;;;;;;;;;5074765;28;20398;-78
2021/08/26 09:45:34;;;;;;;4.37;2.00;;;;;;;;;;5074497;28;20445;-79
2021/08/26 09:48:05;;;;;;;4.97;2.23;;;;;;;;;;5074639;28;20436;-79
2021/08/26 09:50:47;;;;;;;3.50;1.93;;;;;;;;;;5056547;28;20435;-79
2021/08/26 09:53:15;;;;;;;5.20;2.07;;;;;;;;;;5074465;28;20871;-78
2021/08/26 09:55:57;;;;;;;5.50;2.00;;;;;;;;;;5074419;28;20438;-80
2021/08/26 09:58:23;;;;;;;6.37;2.40;;;;;;;;;;5074412;28;20411;-79
2021/08/26 10:00:50;;;;;;;4.70;1.97;;;;;;;;;;5074659;28;20462;-79
2021/08/26 10:03:16;;;;;;;3.30;1.70;;;;;;;;;;5074096;28;20389;-79
2021/08/26 10:05:43;;;;;;;6.00;2.27;;;;;;;;;;5074382;28;20477;-78
2021/08/26 10:08:09;;;;;;;8.00;2.30;;;;;;;;;;5074414;28;20407;-78
2021/08/26 10:10:36;;;;;;;3.30;1.37;;;;;;;;;;5057011;28;20389;-79
2021/08/26 10:13:02;;;;;;;5.87;2.20;;;;;;;;;;5074021;28;20392;-79
2021/08/26 10:15:31;;;;;;;9.07;3.10;;;;;;;;;;5074342;28;20779;-79
2021/08/26 10:18:02;;;;;;;5.33;2.87;;;;;;;;;;5056723;28;20382;-78
2021/08/26 10:20:31;;;;;;;6.57;2.80;;;;;;;;;;5074460;28;20992;-78
2021/08/26 10:22:57;;;;;;;9.47;2.40;;;;;;;;;;5075224;28;20419;-79
2021/08/26 10:25:23;;;;;;;9.50;2.97;;;;;;;;;;5074031;28;20440;-78
2021/08/26 10:27:51;;;;;;;6.43;2.13;;;;;;;;;;5074203;28;20461;-79
2021/08/26 10:30:34;;;;;;;5.27;2.10;;;;;;;;;;5073879;28;20497;-78
2021/08/26 10:33:13;;;;;;;3.70;2.30;;;;;;;;;;5073985;28;20762;-78
2021/08/26 10:35:52;;;;;;;8.73;2.93;;;;;;;;;;5055723;28;20438;-78
2021/08/26 10:38:21;;;;;;;2.70;1.87;;;;;;;;;;5074141;28;20411;-78
2021/08/26 10:40:49;;;;;;;9.00;2.90;;;;;;;;;;5073736;28;20541;-79
2021/08/26 10:43:34;;;;;;;6.13;2.43;;;;;;;;;;5055614;28;20916;-78
2021/08/26 10:46:05;;;;;;;6.87;2.43;;;;;;;;;;5073573;28;20489;-79
2021/08/26 10:48:31;;;;;;;4.90;2.17;;;;;;;;;;5073482;28;20477;-80
2021/08/26 10:51:17;;;;;;;7.20;2.40;;;;;;;;;;5055438;28;20833;-80
2021/08/26 10:53:47;;;;;;;8.10;2.30;;;;;;;;;;5073357;28;20440;-80
2021/08/26 10:56:21;;;;;;;8.07;2.23;;;;;;;;;;5073176;28;20514;-80
2021/08/26 10:58:48;;;;;;;6.90;2.67;;;;;;;;;;5073660;28;20439;-80
2021/08/26 11:01:33;;;;;;;6.60;2.63;;;;;;;;;;5073558;28;20437;-81
2021/08/26 11:04:06;;;;;;;4.67;2.20;;;;;;;;;;5073184;28;20537;-80
2021/08/26 11:06:36;;;;;;;5.43;2.90;;;;;;;;;;5055430;28;20430;-79
2021/08/26 11:09:14;;;;;;;9.83;2.87;;;;;;;;;;5073427;28;20378;-80
2021/08/26 11:11:45;;;;;;;7.43;2.60;;;;;;;;;;5055216;28;20913;-80
2021/08/26 11:14:23;;;;;;;8.40;2.33;;;;;;;;;;5072998;28;20874;-80
2021/08/26 11:16:52;;;;;;;7.80;2.70;;;;;;;;;;5073147;28;20400;-80
2021/08/26 11:19:20;;;;;;;5.73;2.73;;;;;;;;;;5073001;28;20409;-80
2021/08/26 11:21:59;;;;;;;4.37;2.10;;;;;;;;;;5073175;28;20407;-81
2021/08/26 11:24:28;;;;;;;3.80;1.93;;;;;;;;;;5054771;28;20415;-80
2021/08/26 11:27:04;;;;;;;3.60;1.70;;;;;;;;;;5072960;28;20477;-80
2021/08/26 11:29:36;;;;;;;2.80;1.47;;;;;;;;;;5073105;28;20930;-81
2021/08/26 11:32:04;;;;;;;2.73;1.70;;;;;;;;;;5072978;28;20399;-80
2021/08/26 11:34:49;;;;;;;5.60;2.00;;;;;;;;;;5054773;28;20421;-81
2021/08/26 11:37:17;;;;;;;7.20;2.07;;;;;;;;;;5055102;28;20469;-79
2021/08/26 11:39:43;;;;;;;7.07;1.93;;;;;;;;;;5054715;28;20425;-81
2021/08/26 11:42:10;;;;;;;5.77;2.13;;;;;;;;;;5072971;28;20754;-79
2021/08/26 11:44:36;;;;;;;3.30;1.80;;;;;;;;;;5072598;28;20447;-80
2021/08/26 11:47:03;;;;;;;3.77;2.00;;;;;;;;;;5072789;28;20482;-80
2021/08/26 11:49:36;;;;;;;3.87;1.87;;;;;;;;;;5054812;28;20457;-81
2021/08/26 11:52:05;;;;;;;6.53;2.50;;;;;;;;;;5073142;28;20403;-80
2021/08/26 11:54:37;;;;;;;4.90;2.53;;;;;;;;;;5054561;28;20390;-80
2021/08/26 11:57:03;;;;;;;5.90;1.83;;;;;;;;;;5054804;28;20415;-79
2021/08/26 11:59:30;;;;;;;5.03;2.17;;;;;;;;;;5054983;28;20778;-80
2021/08/26 12:02:17;;;;;;;8.53;2.70;;;;;;;;;;5051115;28;20423;-79
2021/08/26 12:04:44;;;;;;;6.97;2.10;;;;;;;;;;5069931;28;20378;-77
2021/08/26 12:07:11;;;;;;;8.00;2.50;;;;;;;;;;5068877;28;20492;-77
2021/08/26 12:09:38;;;;;;;6.37;1.90;;;;;;;;;;5050894;28;20852;-77
2021/08/26 12:12:11;;;;;;;6.33;1.70;;;;;;;;;;5048745;28;20393;-78
2021/08/26 12:14:37;;;;;;;3.97;2.00;;;;;;;;;;5058692;28;20485;-78
2021/08/26 12:17:17;;;;;;;6.53;1.93;;;;;;;;;;5048711;28;20931;-78
2021/08/26 12:19:44;;;;;;;11.13;2.30;;;;;;;;;;5061808;28;20538;-78
2021/08/26 12:22:13;;;;;;;7.50;2.17;;;;;;;;;;5076342;28;20390;-78
2021/08/26 12:24:49;;;;;;;4.33;1.80;;;;;;;;;;5075844;28;20417;-78
2021/08/26 12:27:15;;;;;;;2.03;1.30;;;;;;;;;;5076025;28;20381;-78
2021/08/26 12:29:44;;;;;;;5.43;1.50;;;;;;;;;;5076178;28;20393;-77
2021/08/26 12:32:23;;;;;;;5.30;1.80;;;;;;;;;;5076023;28;20386;-77
2021/08/26 12:34:49;;;;;;;5.90;2.10;;;;;;;;;;5075756;28;20883;-77
2021/08/26 12:37:15;;;;;;;3.40;1.77;;;;;;;;;;5076028;28;20381;-77
2021/08/26 12:39:41;;;;;;;5.23;2.10;;;;;;;;;;5058294;28;20445;-77
2021/08/26 12:42:08;;;;;;;4.23;2.37;;;;;;;;;;5076100;28;20435;-78
2021/08/26 12:45:00;;;;;;;8.23;1.50;;;;;;;;;;5075615;28;20407;-80
2021/08/26 12:47:30;;;;;;;4.70;2.00;;;;;;;;;;5075195;28;20759;-79
2021/08/26 12:49:57;;;;;;;3.03;1.20;;;;;;;;;;5075419;28;20396;-79
2021/08/26 12:52:45;;;;;;;1.97;1.20;;;;;;;;;;5075973;28;20374;-82
2021/08/26 12:55:11;;;;;;;3.30;1.80;;;;;;;;;;5058161;28;20952;-81
2021/08/26 12:57:37;;;;;;;4.73;2.00;;;;;;;;;;5075679;28;20386;-81
2021/08/26 13:00:04;;;;;;;5.73;1.93;;;;;;;;;;5057512;28;20456;-80
2021/08/26 13:02:33;;;;;;;2.27;1.67;;;;;;;;;;5057582;28;21001;-80
2021/08/26 13:05:03;;;;;;;4.20;1.83;;;;;;;;;;5058306;28;20427;-80
2021/08/26 13:07:38;;;;;;;6.73;1.83;;;;;;;;;;5057691;28;20889;-80
2021/08/26 13:10:35;;;;;;;6.60;2.37;;;;;;;;;;5075669;28;20418;-81
2021/08/26 13:13:13;;;;;;;4.63;1.90;;;;;;;;;;5057410;28;20418;-79
2021/08/26 13:15:49;;;;;;;2.00;1.53;;;;;;;;;;5057462;28;20401;-80
2021/08/26 13:21:01;;;;;;;5.93;1.27;;;;;;;;;;5029556;28;20467;-79
2021/08/26 13:23:42;;;;;;;2.47;1.30;;;;;;;;;;5075111;28;20415;-80
2021/08/26 13:26:31;;;;;;;4.73;1.53;;;;;;;;;;5079915;28;20408;-80
2021/08/26 13:29:20;;;;;;;2.13;1.10;;;;;;;;;;5033012;28;20399;-79
2021/08/26 13:31:46;;;;;;;4.10;1.43;;;;;;;;;;5022937;28;20387;-80
2021/08/26 13:34:21;;;;;;;5.53;1.60;;;;;;;;;;5016116;28;20443;-80
2021/08/26 13:37:02;;;;;;;2.53;1.53;;;;;;;;;;5016184;28;20437;-79
2021/08/26 13:39:32;;;;;;;4.63;1.63;;;;;;;;;;5032709;28;20435;-78
2021/08/26 13:42:00;;;;;;;5.20;1.70;;;;;;;;;;5016129;28;20535;-80
2021/08/26 13:44:27;;;;;;;3.73;1.30;;;;;;;;;;5032428;28;20409;-80
2021/08/26 13:46:53;;;;;;;2.90;1.67;;;;;;;;;;5016384;28;20825;-80
2021/08/26 13:49:36;;;;;;;1.40;1.00;;;;;;;;;;5016458;28;20805;-80
2021/08/26 13:52:10;;;;;;;3.10;1.60;;;;;;;;;;5015919;28;20439;-79
2021/08/26 13:54:42;;;;;;;4.87;1.57;;;;;;;;;;5015874;28;20428;-80
2021/08/26 13:57:15;;;;;;;5.33;2.00;;;;;;;;;;5032696;28;20496;-79
2021/08/26 13:59:41;;;;;;;5.27;1.83;;;;;;;;;;5032531;28;20494;-79
2021/08/26 14:02:27;;;;;;;5.07;1.87;;;;;;;;;;5016082;28;20413;-80
2021/08/26 14:05:34;;;;;;;4.90;1.50;;;;;;;;;;5026316;28;20407;-80
2021/08/26 14:08:03;;;;;;;5.90;1.63;;;;;;;;;;4976097;28;20530;-80
2021/08/26 14:11:05;;;;;;;5.57;2.03;;;;;;;;;;4976684;28;20906;-80
2021/08/26 14:17:28;;;;;;;;;;;;;;;;;;;;;
2021/08/26 14:23:39;;;;;;;6.87;2.00;;;;;;;;;;4934524;29;20836;-79
2021/08/26 14:26:42;;;;;;;2.80;1.73;;;;;;;;;;5075378;22;20490;-79
2021/08/26 14:29:09;;;;;;;4.23;1.73;;;;;;;;;;5073648;28;20439;-80
2021/08/26 14:32:03;;;;;;;8.43;1.80;;;;;;;;;;5073354;28;20422;-79
2021/08/26 14:34:52;;;;;;;5.50;2.10;;;;;;;;;;5055544;28;20411;-80
2021/08/26 14:37:33;;;;;;;8.40;2.60;;;;;;;;;;5053673;28;20491;-80
2021/08/26 14:40:00;;;;;;;2.80;1.47;;;;;;;;;;5035828;28;20839;-80
2021/08/26 14:45:33;;;;;;;7.13;2.77;;;;;;;;;;5012074;28;20408;-80
2021/08/26 14:48:14;;;;;;;4.83;1.70;;;;;;;;;;5011840;28;21068;-79
2021/08/26 14:50:53;;;;;;;;;;;;;;;;;;;;;
2021/08/26 15:00:07;;;;;;;4.73;2.50;;;;;;;;;;4840407;29;20436;-80
2021/08/26 15:05:49;;;;;;;4.90;2.30;;;;;;;;;;4876911;29;20489;-78
2021/08/26 15:08:16;;;;;;;4.07;2.07;;;;;;;;;;4907727;29;20595;-79
2021/08/26 15:10:42;;;;;;;4.53;2.27;;;;;;;;;;4984164;28;20421;-79
2021/08/26 15:13:08;;;;;;;5.97;2.37;;;;;;;;;;5033200;28;20434;-79
2021/08/26 15:15:34;;;;;;;4.93;2.40;;;;;;;;;;5015634;28;20531;-79
2021/08/26 15:18:02;;;;;;;6.00;2.20;;;;;;;;;;5033453;28;20409;-76
2021/08/26 15:20:28;;;;;;;3.20;1.77;;;;;;;;;;5015485;28;20447;-78